• Join FlightAware (Why Join?)
  • Login
  • US Flag 
06:17PM EDT


 

Airport Tracker/Info


-or-


 

Live Flight TrackerFlight Track Log ✈ UAL1036 ✈ 22-Jun-2013 ✈ SEQM / UIO - KIAH

Flight Track Log - Related Links

Times and Time Zones

All times are in EDT time to prevent confusion due to time zone crossing. See the UAL1036 flight status page for this flight to view local times or setup timezone preferences in your user account.

Time Position Orientation Groundspeed Altitude Reporting Facility
EDT Latitude Longitude Course Direction KTS MPH feet Rate Location/Type
01:31AM 1.6158 -79.0720 342° North  Level FlightAware Approximate
01:32AM 1.7158 -79.1066 337° Northwest  Level FlightAware Approximate
01:33AM 1.8226 -79.1511 337° Northwest  Level FlightAware Approximate
01:34AM 1.9294 -79.1956 337° Northwest  Level FlightAware Approximate
01:35AM 2.0362 -79.2401 337° Northwest  Level FlightAware Approximate
01:36AM 2.1430 -79.2846 337° Northwest  Level FlightAware Approximate
01:37AM 2.2499 -79.3292 337° Northwest  Level FlightAware Approximate
01:38AM 2.3567 -79.3737 337° Northwest  Level FlightAware Approximate
01:39AM 2.4635 -79.4183 337° Northwest  Level FlightAware Approximate
01:40AM 2.5703 -79.4628 337° Northwest  Level FlightAware Approximate
01:41AM 2.6771 -79.5074 337° Northwest  Level FlightAware Approximate
01:42AM 2.7839 -79.5519 337° Northwest  Level FlightAware Approximate
01:43AM 2.8907 -79.5965 337° Northwest  Level FlightAware Approximate
01:44AM 2.9975 -79.6411 337° Northwest  Level FlightAware Approximate
01:45AM 3.1043 -79.6857 337° Northwest  Level FlightAware Approximate
01:46AM 3.2111 -79.7303 337° Northwest  Level FlightAware Approximate
01:47AM 3.3179 -79.7749 337° Northwest  Level FlightAware Approximate
01:48AM 3.4247 -79.8195 337° Northwest  Level FlightAware Approximate
01:49AM 3.5315 -79.8641 337° Northwest  Level FlightAware Approximate
01:50AM 3.6383 -79.9088 337° Northwest  Level FlightAware Approximate
01:51AM 3.7451 -79.9534 337° Northwest  Level FlightAware Approximate
01:52AM 3.8518 -79.9981 337° Northwest  Level FlightAware Approximate
01:53AM 3.9586 -80.0427 337° Northwest  Level FlightAware Approximate
01:54AM 4.0654 -80.0874 337° Northwest  Level FlightAware Approximate
01:55AM 4.1722 -80.1321 337° Northwest  Level FlightAware Approximate
01:56AM 4.2790 -80.1768 337° Northwest  Level FlightAware Approximate
01:57AM 4.3861 -80.2217 337° Northwest  Level FlightAware Approximate
01:58AM 4.4932 -80.2666 337° Northwest  Level FlightAware Approximate
01:59AM 4.6003 -80.3115 337° Northwest  Level FlightAware Approximate
02:00AM 4.7075 -80.3564 337° Northwest  Level FlightAware Approximate
02:01AM 4.8146 -80.4013 337° Northwest  Level FlightAware Approximate
02:02AM 4.9217 -80.4463 337° Northwest  Level FlightAware Approximate
02:03AM 5.0288 -80.4912 337° Northwest  Level FlightAware Approximate
02:04AM 5.1359 -80.5362 337° Northwest  Level FlightAware Approximate
02:05AM 5.2430 -80.5811 337° Northwest  Level FlightAware Approximate
02:06AM 5.3501 -80.6262 337° Northwest  Level FlightAware Approximate
02:07AM 5.4572 -80.6712 337° Northwest  Level FlightAware Approximate
02:08AM 5.5643 -80.7162 337° Northwest  Level FlightAware Approximate
02:09AM 5.6714 -80.7612 337° Northwest  Level FlightAware Approximate
02:10AM 5.7785 -80.8063 337° Northwest  Level FlightAware Approximate
02:11AM 5.8856 -80.8514 337° Northwest  Level FlightAware Approximate
02:12AM 5.9927 -80.8965 337° Northwest  Level FlightAware Approximate
02:13AM 6.0998 -80.9416 337° Northwest  Level FlightAware Approximate
02:14AM 6.2069 -80.9867 337° Northwest  Level FlightAware Approximate
02:15AM 6.3139 -81.0319 337° Northwest  Level FlightAware Approximate
02:16AM 6.4210 -81.0770 337° Northwest  Level FlightAware Approximate
02:17AM 6.5281 -81.1222 337° Northwest  Level FlightAware Approximate
02:18AM 6.6351 -81.1674 338° Northwest  Level FlightAware Approximate
02:19AM 6.7427 -81.2113 338° Northwest  Level FlightAware Approximate
02:20AM 6.8503 -81.2551 338° Northwest  Level FlightAware Approximate
02:21AM 6.9580 -81.2990 338° Northwest  Level FlightAware Approximate
02:22AM 7.0656 -81.3429 338° Northwest  Level FlightAware Approximate
02:23AM 7.1732 -81.3869 338° Northwest  Level FlightAware Approximate
02:24AM 7.2808 -81.4308 338° Northwest  Level FlightAware Approximate
02:25AM 7.3884 -81.4748 338° Northwest  Level FlightAware Approximate
02:26AM 7.4957 -81.5193 337° Northwest  Level FlightAware Approximate
02:27AM 7.6028 -81.5646 337° Northwest  Level FlightAware Approximate
02:28AM 7.7099 -81.6099 337° Northwest  Level FlightAware Approximate
02:29AM 7.8169 -81.6553 337° Northwest  Level FlightAware Approximate
02:30AM 7.9240 -81.7006 337° Northwest  Level FlightAware Approximate
02:31AM 8.0310 -81.7460 337° Northwest  Level FlightAware Approximate
02:32AM 8.1381 -81.7914 337° Northwest  Level FlightAware Approximate
02:33AM 8.2451 -81.8368 337° Northwest  Level FlightAware Approximate
02:34AM 8.3521 -81.8823 337° Northwest  Level FlightAware Approximate
02:35AM 8.4592 -81.9278 337° Northwest  Level FlightAware Approximate
02:36AM 8.5662 -81.9733 337° Northwest  Level FlightAware Approximate
02:37AM 8.6732 -82.0188 337° Northwest  Level FlightAware Approximate
02:38AM 8.7802 -82.0644 337° Northwest  Level FlightAware Approximate
02:39AM 8.8872 -82.1099 337° Northwest  Level FlightAware Approximate
02:40AM 8.9942 -82.1555 337° Northwest  Level FlightAware Approximate
02:41AM 9.1012 -82.2012 337° Northwest  Level FlightAware Approximate
02:42AM 9.2082 -82.2468 337° Northwest  Level FlightAware Approximate
02:43AM 9.3152 -82.2925 337° Northwest  Level FlightAware Approximate
02:44AM 9.4222 -82.3383 337° Northwest  Level FlightAware Approximate
02:45AM 9.5291 -82.3840 337° Northwest  Level FlightAware Approximate
02:46AM 9.6361 -82.4298 337° Northwest  Level FlightAware Approximate
02:47AM 9.7431 -82.4756 337° Northwest  Level FlightAware Approximate
02:48AM 9.8500 -82.5214 337° Northwest  Level FlightAware Approximate
02:49AM 9.9569 -82.5673 337° Northwest  Level FlightAware Approximate
02:50AM 10.0639 -82.6132 337° Northwest  Level FlightAware Approximate
02:51AM 10.1708 -82.6592 337° Northwest  Level FlightAware Approximate
02:52AM 10.2777 -82.7052 337° Northwest  Level FlightAware Approximate
02:53AM 10.3846 -82.7512 337° Northwest  Level FlightAware Approximate
02:54AM 10.4915 -82.7973 337° Northwest  Level FlightAware Approximate
02:55AM 10.5984 -82.8434 337° Northwest  Level FlightAware Approximate
02:56AM 10.7052 -82.8895 337° Northwest  Level FlightAware Approximate
02:57AM 10.8121 -82.9357 337° Northwest  Level FlightAware Approximate
02:58AM 10.9190 -82.9819 337° Northwest  Level FlightAware Approximate
02:59AM 11.0259 -83.0281 337° Northwest  Level FlightAware Approximate
03:00AM 11.1327 -83.0743 337° Northwest  Level FlightAware Approximate
03:01AM 11.2396 -83.1206 337° Northwest  Level FlightAware Approximate
03:02AM 11.3464 -83.1670 337° Northwest  Level FlightAware Approximate
03:03AM 11.4532 -83.2133 337° Northwest  Level FlightAware Approximate
03:04AM 11.5601 -83.2597 337° Northwest  Level FlightAware Approximate
03:05AM 11.6669 -83.3062 337° Northwest  Level FlightAware Approximate
03:06AM 11.7737 -83.3526 337° Northwest  Level FlightAware Approximate
03:07AM 11.8805 -83.3991 337° Northwest  Level FlightAware Approximate
03:08AM 11.9873 -83.4457 337° Northwest  Level FlightAware Approximate
03:09AM 12.0941 -83.4922 337° Northwest  Level FlightAware Approximate
03:10AM 12.2009 -83.5389 337° Northwest  Level FlightAware Approximate
03:11AM 12.3076 -83.5855 337° Northwest  Level FlightAware Approximate
03:12AM 12.4144 -83.6322 337° Northwest  Level FlightAware Approximate
03:13AM 12.5211 -83.6789 337° Northwest  Level FlightAware Approximate
03:14AM 12.6279 -83.7257 337° Northwest  Level FlightAware Approximate
03:15AM 12.7348 -83.7721 337° Northwest  Level FlightAware Approximate
03:16AM 12.8418 -83.8182 337° Northwest  Level FlightAware Approximate
03:17AM 12.9489 -83.8643 337° Northwest  Level FlightAware Approximate
03:18AM 13.0559 -83.9105 337° Northwest  Level FlightAware Approximate
03:19AM 13.1629 -83.9566 337° Northwest  Level FlightAware Approximate
03:20AM 13.2700 -84.0029 337° Northwest  Level FlightAware Approximate
03:21AM 13.3770 -84.0491 337° Northwest  Level FlightAware Approximate
03:22AM 13.4840 -84.0955 337° Northwest  Level FlightAware Approximate
03:23AM 13.5917 -84.1421 337° Northwest  Level FlightAware Approximate
03:24AM 13.6994 -84.1888 337° Northwest  Level FlightAware Approximate
03:25AM 13.8071 -84.2356 337° Northwest  Level FlightAware Approximate
03:26AM 13.9148 -84.2824 337° Northwest  Level FlightAware Approximate
03:27AM 14.0225 -84.3292 337° Northwest  Level FlightAware Approximate
03:28AM 14.1301 -84.3761 337° Northwest  Level FlightAware Approximate
03:29AM 14.2378 -84.4230 337° Northwest  Level FlightAware Approximate
03:30AM 14.3455 -84.4700 337° Northwest  Level FlightAware Approximate
03:31AM 14.4531 -84.5170 337° Northwest  Level FlightAware Approximate
03:32AM 14.5608 -84.5641 337° Northwest  Level FlightAware Approximate
03:33AM 14.6679 -84.6123 336° Northwest  Level FlightAware Approximate
03:34AM 14.7751 -84.6605 336° Northwest  Level FlightAware Approximate
03:35AM 14.8822 -84.7089 336° Northwest  Level FlightAware Approximate
03:36AM 14.9894 -84.7572 336° Northwest  Level FlightAware Approximate
03:37AM 15.0965 -84.8057 336° Northwest  Level FlightAware Approximate
03:38AM 15.2036 -84.8542 336° Northwest  Level FlightAware Approximate
03:39AM 15.3107 -84.9027 336° Northwest  Level FlightAware Approximate
03:40AM 15.4178 -84.9513 336° Northwest  Level FlightAware Approximate
03:41AM 15.5249 -84.9999 336° Northwest  Level FlightAware Approximate
03:42AM 15.6319 -85.0486 336° Northwest  Level FlightAware Approximate
03:43AM 15.7390 -85.0973 336° Northwest  Level FlightAware Approximate
03:44AM 15.8460 -85.1461 336° Northwest  Level FlightAware Approximate
03:45AM 15.9530 -85.1949 336° Northwest  Level FlightAware Approximate
03:46AM 16.0601 -85.2438 336° Northwest  Level FlightAware Approximate
03:47AM 16.1671 -85.2927 336° Northwest  Level FlightAware Approximate
03:48AM 16.2741 -85.3417 336° Northwest  Level FlightAware Approximate
03:49AM 16.3811 -85.3908 336° Northwest  Level FlightAware Approximate
03:50AM 16.4881 -85.4398 336° Northwest  Level FlightAware Approximate
03:51AM 16.5950 -85.4890 336° Northwest  Level FlightAware Approximate
03:52AM 16.7020 -85.5382 336° Northwest  Level FlightAware Approximate
03:53AM 16.8089 -85.5875 336° Northwest  Level FlightAware Approximate
03:54AM 16.9158 -85.6368 336° Northwest  Level FlightAware Approximate
03:55AM 17.0228 -85.6861 336° Northwest  Level FlightAware Approximate
03:56AM 17.1299 -85.7351 336° Northwest  Level FlightAware Approximate
03:57AM 17.2370 -85.7841 336° Northwest  Level FlightAware Approximate
03:58AM 17.3441 -85.8331 336° Northwest  Level FlightAware Approximate
03:59AM 17.4511 -85.8822 336° Northwest  Level FlightAware Approximate
03:59AM 18.5470 -85.7180 336° Northwest 413 475 38,000  Level FlightAware
04:00AM 17.5582 -85.9314 336° Northwest  Level FlightAware Approximate
04:00AM 18.6180 -85.7610 330° Northwest 412 474 38,000  Level FlightAware
04:02AM 18.7860 -85.8640 330° Northwest 412 474 38,000  Level FlightAware
04:03AM 18.8650 -85.9110 331° Northwest 415 478 38,000  Level FlightAware
04:03AM 18.9790 -85.9790 331° Northwest 418 481 38,000  Level FlightAware
04:04AM 19.0480 -86.0210 330° Northwest 418 481 38,000  Level FlightAware
04:05AM 19.1230 -86.0670 330° Northwest 420 483 38,000  Level FlightAware
04:05AM 19.1900 -86.1070 331° Northwest 421 484 38,000  Level FlightAware
04:06AM 19.2540 -86.1460 330° Northwest 423 487 38,000  Level FlightAware
04:07AM 19.3320 -86.1930 330° Northwest 423 487 38,000  Level FlightAware
04:08AM 19.4080 -86.2400 330° Northwest 425 489 38,000  Level FlightAware
04:08AM 19.4750 -86.2800 331° Northwest 426 490 38,000  Level FlightAware
04:09AM 19.5530 -86.3270 330° Northwest 426 490 38,000  Level FlightAware
04:10AM 19.6210 -86.3690 330° Northwest 428 493 38,000  Level FlightAware
04:10AM 19.6970 -86.4150 330° Northwest 429 494 38,000  Level FlightAware
04:11AM 19.7660 -86.4570 330° Northwest 429 494 38,000  Level FlightAware
04:12AM 19.8420 -86.5040 330° Northwest 429 494 38,000  Level FlightAware
04:12AM 19.9110 -86.5460 330° Northwest 431 496 38,000  Level FlightAware
04:13AM 19.9880 -86.5930 330° Northwest 429 494 38,000  Level FlightAware
04:14AM 20.0560 -86.6340 330° Northwest 429 494 38,000  Level FlightAware
04:15AM 20.1330 -86.6810 330° Northwest 431 496 38,000  Level FlightAware
04:15AM 20.1980 -86.7220 329° Northwest 431 496 38,000  Level FlightAware
04:16AM 20.2980 -86.7830 330° Northwest 433 498 38,000  Level FlightAware
04:17AM 20.3750 -86.8310 330° Northwest 435 501 38,000  Level FlightAware
04:18AM 20.4450 -86.8740 330° Northwest 435 501 38,000  Level FlightAware
04:18AM 20.5170 -86.9180 330° Northwest 436 502 38,000  Level FlightAware
04:19AM 20.5930 -86.9720 326° Northwest 435 501 38,000  Level FlightAware
04:20AM 20.6510 -87.0140 326° Northwest 433 498 38,000  Level FlightAware
04:20AM 20.7320 -87.0720 326° Northwest 432 497 38,000  Level FlightAware
04:21AM 20.7980 -87.1190 326° Northwest 432 497 38,000  Level FlightAware
04:22AM 20.8720 -87.1720 326° Northwest 431 496 38,000  Level FlightAware
04:22AM 20.9380 -87.2190 326° Northwest 430 495 38,000  Level FlightAware
04:23AM 21.0040 -87.2660 326° Northwest 430 495 38,000  Level FlightAware
04:24AM 21.0800 -87.3210 326° Northwest 432 497 38,000  Level FlightAware
04:25AM 21.1460 -87.3680 326° Northwest 432 497 38,000  Level FlightAware
04:25AM 21.2200 -87.4220 326° Northwest 434 499 38,000  Level FlightAware
04:26AM 21.2870 -87.4690 327° Northwest 435 501 38,000  Level FlightAware
04:27AM 21.3550 -87.5190 326° Northwest 435 501 38,000  Level FlightAware
04:27AM 21.4170 -87.5630 327° Northwest 437 503 38,000  Level FlightAware
04:28AM 21.4830 -87.6110 326° Northwest 439 505 38,000  Level FlightAware
04:29AM 21.5520 -87.6610 326° Northwest 439 505 38,000  Level FlightAware
04:29AM 21.6300 -87.7170 326° Northwest 442 509 38,000  Level FlightAware
04:30AM 21.6970 -87.7660 326° Northwest 443 510 38,000  Level FlightAware
04:31AM 21.7760 -87.8240 326° Northwest 444 511 38,000  Level FlightAware
04:32AM 21.8510 -87.8780 326° Northwest 443 510 38,000  Level FlightAware
04:32AM 21.9080 -87.9210 325° Northwest 442 509 38,000  Level FlightAware
04:33AM 21.9840 -87.9770 326° Northwest 442 509 38,000  Level FlightAware
04:34AM 22.0540 -88.0290 325° Northwest 441 507 38,000  Level FlightAware
04:34AM 22.1260 -88.0830 325° Northwest 440 506 38,000  Level FlightAware
04:35AM 22.1770 -88.1210 325° Northwest 439 505 38,000  Level FlightAware
04:36AM 22.2630 -88.1840 326° Northwest 439 505 38,000  Level FlightAware
04:36AM 22.3270 -88.2310 326° Northwest 439 505 38,000  Level FlightAware
04:37AM 22.4100 -88.2910 326° Northwest 438 504 38,000  Level FlightAware
04:38AM 22.4700 -88.3350 326° Northwest 439 505 38,000  Level FlightAware
04:38AM 22.5470 -88.3920 326° Northwest 439 505 38,000  Level FlightAware
04:39AM 22.6170 -88.4430 326° Northwest 440 506 38,000  Level FlightAware
04:40AM 22.6500 -88.4680 325° Northwest 441 507 38,000  Level FlightAware
04:41AM 22.7410 -88.5350 326° Northwest 441 507 38,000  Level FlightAware
04:42AM 22.8080 -88.5840 326° Northwest 443 510 38,000  Level FlightAware
04:42AM 22.8720 -88.6320 325° Northwest 443 510 38,000  Level FlightAware
04:43AM 22.9370 -88.6800 326° Northwest 443 510 38,000  Level FlightAware
04:44AM 23.0250 -88.7440 326° Northwest 445 512 38,000  Level FlightAware
04:44AM 23.0810 -88.7860 325° Northwest 446 513 38,000  Level FlightAware
04:45AM 23.1600 -88.8450 326° Northwest 446 513 38,000  Level FlightAware
04:46AM 23.2830 -88.9370 326° Northwest 444 511 38,000  Level FlightAware
04:46AM 23.3080 -88.9550 327° Northwest 444 511 38,000  Level FlightAware
04:47AM 23.3820 -89.0100 326° Northwest 444 511 38,000  Level FlightAware
04:48AM 23.4470 -89.0590 325° Northwest 444 511 38,000  Level FlightAware
04:49AM 23.5190 -89.1130 325° Northwest 446 513 38,000  Level FlightAware
04:49AM 23.5860 -89.1630 326° Northwest 447 514 38,000  Level FlightAware
04:49AM 23.6130 -89.1830 326° Northwest 447 514 38,000  Level FlightAware
04:51AM 23.7940 -89.3200 325° Northwest 448 516 38,000  Level FlightAware
04:52AM 23.8820 -89.3860 326° Northwest 451 519 38,000  Level FlightAware
04:53AM 23.9620 -89.4450 326° Northwest 452 520 38,000  Level FlightAware
04:54AM 24.0760 -89.5310 325° Northwest 451 519 38,000  Level FlightAware
04:55AM 24.1390 -89.5780 326° Northwest 451 519 38,000  Level FlightAware
04:56AM 24.2080 -89.6320 324° Northwest 451 519 38,000  Level FlightAware
04:57AM 24.3140 -89.7100 326° Northwest 444 511 38,000  Level FlightAware
04:57AM 24.3670 -89.7510 325° Northwest 444 511 38,000  Level FlightAware
04:58AM 24.4340 -89.8030 325° Northwest 444 511 38,000  Level FlightAware
04:59AM 24.5540 -89.8920 326° Northwest 441 507 38,000  Level FlightAware
05:00AM 24.6220 -89.9440 325° Northwest 441 507 38,000  Level FlightAware
05:00AM 24.6790 -89.9880 325° Northwest 441 507 38,000  Level FlightAware
05:01AM 24.7300 -90.0280 325° Northwest 441 507 38,000  Level FlightAware
05:02AM 24.7990 -90.0810 325° Northwest 441 507 38,000  Level FlightAware
05:02AM 24.8530 -90.1230 325° Northwest 441 507 38,000  Level FlightAware
05:03AM 24.9040 -90.1620 325° Northwest 441 507 38,000  Level FlightAware
05:04AM 24.9730 -90.2150 325° Northwest 441 507 38,000  Level FlightAware
05:04AM 25.0240 -90.2550 325° Northwest 441 507 38,000  Level FlightAware
05:05AM 25.0930 -90.3080 325° Northwest 441 507 38,000  Level FlightAware
05:06AM 25.1450 -90.3480 325° Northwest 441 507 38,000  Level FlightAware
05:07AM 25.2130 -90.4010 325° Northwest 441 507 38,000  Level FlightAware
05:07AM 25.2640 -90.4400 325° Northwest 441 507 38,000  Level FlightAware
05:08AM 25.3330 -90.4940 325° Northwest 441 507 38,000  Level FlightAware
05:11AM 25.5718 -90.6778 325° Northwest  Level FlightAware Approximate
05:12AM 25.6673 -90.7516 325° Northwest  Level FlightAware Approximate
05:13AM 25.7627 -90.8255 325° Northwest  Level FlightAware Approximate
05:14AM 25.8581 -90.8994 325° Northwest  Level FlightAware Approximate
05:15AM 25.9534 -90.9735 325° Northwest  Level FlightAware Approximate
05:16AM 26.0488 -91.0478 325° Northwest  Level FlightAware Approximate
05:17AM 26.1440 -91.1221 325° Northwest  Level FlightAware Approximate
05:18AM 26.2393 -91.1966 325° Northwest  Level FlightAware Approximate
05:19AM 26.3345 -91.2712 325° Northwest  Level FlightAware Approximate
05:20AM 26.4295 -91.3461 325° Northwest  Level FlightAware Approximate
05:21AM 26.5245 -91.4212 325° Northwest  Level FlightAware Approximate
05:22AM 26.6194 -91.4965 325° Northwest  Level FlightAware Approximate
05:23AM 26.7143 -91.5718 325° Northwest  Level FlightAware Approximate
05:24AM 26.8117 -91.6494 325° Northwest  Level FlightAware Approximate
05:25AM 26.9091 -91.7271 325° Northwest  Level FlightAware Approximate
05:25AM 27.1554 -91.9872 325° Northwest 423 487 38,000  Level FlightAware ADS-B
05:26AM 27.2172 -92.0507 318° Northwest 423 487 38,000  Level FlightAware ADS-B
05:26AM 27.2609 -92.0957 318° Northwest 423 487 38,000  Level FlightAware ADS-B
05:31AM 27.6709 -92.5198 318° Northwest 421 484 38,000  Level FlightAware ADS-B
05:32AM 27.7140 -92.5647 317° Northwest 420 483 38,000  Level FlightAware ADS-B
05:33AM 27.8091 -92.6641 317° Northwest 420 483 38,000 -60 Level FlightAware ADS-B
05:34AM 27.8961 -92.7542 317° Northwest 420 483 37,900  Descending Houston Center
05:35AM 27.9800 -92.8450 316° Northwest 419 482 38,000  Climbing Houston Center
05:36AM 28.0650 -92.9347 317° Northwest 418 481 38,000  Level Houston Center
05:37AM 28.1497 -93.0239 317° Northwest 417 480 38,000 -60 Level Houston Center
05:38AM 28.2353 -93.1142 317° Northwest 419 482 37,900  Descending Houston Center
05:39AM 28.3208 -93.2031 318° Northwest 419 482 38,000 -180 Climbing Houston Center
05:44AM 28.7680 -93.6800 318° Northwest 427 491 36,800 -240 Descending FlightAware
05:45AM 28.8120 -93.7280 316° Northwest 427 491 36,800  Level FlightAware
05:45AM 28.8670 -93.7890 316° Northwest 427 491 36,800  Level FlightAware
05:46AM 28.9110 -93.8370 316° Northwest 427 491 36,800  Level FlightAware
05:47AM 28.9690 -93.9010 316° Northwest 427 491 36,800  Level FlightAware
05:47AM 29.0130 -93.9510 315° West 427 491 36,800  Level FlightAware
05:48AM 29.0690 -94.0120 316° Northwest 427 491 36,800  Level FlightAware
05:49AM 29.1250 -94.0730 316° Northwest 427 491 36,800 -10,440 Level FlightAware
05:50AM 29.2445 -94.1924 319° Northwest 392 451 22,200 -13,680 Descending FlightAware ADS-B
05:50AM 29.2845 -94.2358 317° Northwest 386 444 21,100 -2,160 Descending FlightAware ADS-B
05:51AM 29.3238 -94.2785 317° Northwest 380 437 20,000 -2,100 Descending FlightAware ADS-B
05:51AM 29.3620 -94.3202 316° Northwest 372 428 19,000 -1,920 Descending FlightAware ADS-B
05:52AM 29.3991 -94.3608 316° Northwest 365 420 18,100 -1,920 Descending FlightAware ADS-B
05:52AM 29.4356 -94.4007 316° Northwest 360 414 17,100 -1,980 Descending FlightAware ADS-B
05:53AM 29.4718 -94.4401 317° Northwest 355 409 16,100 -1,920 Descending FlightAware ADS-B
05:53AM 29.5076 -94.4791 317° Northwest 349 402 15,200 -1,920 Descending FlightAware ADS-B
05:54AM 29.5429 -94.5177 316° Northwest 344 396 14,200 -1,920 Descending FlightAware ADS-B
05:54AM 29.5777 -94.5560 316° Northwest 339 390 13,300 -1,800 Descending FlightAware ADS-B
05:55AM 29.6121 -94.5937 316° Northwest 335 386 12,400 -1,920 Descending FlightAware ADS-B
05:55AM 29.6460 -94.6309 316° Northwest 332 382 11,400 -1,920 Descending FlightAware ADS-B
05:56AM 29.6794 -94.6677 316° Northwest 327 376 10,500 -1,320 Descending FlightAware ADS-B
05:56AM 29.7120 -94.7034 316° Northwest 310 357 10,100 -660 Descending FlightAware ADS-B
05:56AM 29.7275 -94.7206 316° Northwest 300 345 10,000 -840 Descending FlightAware ADS-B
05:57AM 29.7425 -94.7371 316° Northwest 291 335 9,700 -1,200 Descending FlightAware ADS-B
05:57AM 29.7572 -94.7534 316° Northwest 290 334 9,400 -1,380 Descending FlightAware ADS-B
05:57AM 29.7725 -94.7702 316° Northwest 289 333 9,000 -1,440 Descending FlightAware ADS-B
05:57AM 29.7864 -94.7854 316° Northwest 289 333 8,700 -1,320 Descending FlightAware ADS-B
05:58AM 29.7997 -94.8001 316° Northwest 289 333 8,400 -1,440 Descending FlightAware ADS-B
05:58AM 29.8144 -94.8165 316° Northwest 289 333 8,000 -1,380 Descending FlightAware ADS-B
05:58AM 29.8293 -94.8329 316° Northwest 290 334 7,700 -1,440 Descending FlightAware ADS-B
05:58AM 29.8442 -94.8494 316° Northwest 292 336 7,300 -1,440 Descending FlightAware ADS-B
05:59AM 29.8589 -94.8656 316° Northwest 295 339 7,000 -1,620 Descending FlightAware ADS-B
05:59AM 29.8627 -94.8702 314° West 296 341 6,800 -2,040 Descending FlightAware ADS-B
05:59AM 29.8673 -94.8764 311° West 296 341 6,700 -1,680 Descending FlightAware ADS-B
05:59AM 29.8721 -94.8837 307° West 296 341 6,500 -1,800 Descending FlightAware ADS-B
05:59AM 29.8751 -94.8890 303° West 295 339 6,400 -1,500 Descending FlightAware ADS-B
05:59AM 29.8780 -94.8945 301° West 294 338 6,300 -1,380 Descending FlightAware ADS-B
05:59AM 29.8808 -94.9004 299° West 293 337 6,200 -1,380 Descending FlightAware ADS-B
05:59AM 29.8891 -94.9191 297° West 290 334 5,900 -1,260 Descending FlightAware ADS-B
06:00AM 29.9064 -94.9607 296° West 284 327 5,300 -1,080 Descending FlightAware ADS-B
06:00AM 29.9149 -94.9815 295° West 277 319 5,100 -840 Descending FlightAware ADS-B
06:01AM 29.9299 -95.0186 295° West 263 303 4,700 -960 Descending FlightAware ADS-B
06:01AM 29.9377 -95.0380 295° West 259 298 4,400 -1,200 Descending FlightAware ADS-B
06:01AM 29.9455 -95.0573 295° West 259 298 4,100 -1,200 Descending FlightAware ADS-B
06:01AM 29.9536 -95.0773 295° West 257 296 3,800 -780 Descending FlightAware ADS-B
06:02AM 29.9680 -95.1145 293° West 240 276 3,500 -600 Descending FlightAware ADS-B
06:02AM 29.9724 -95.1286 288° West 227 261 3,400 -900 Descending FlightAware ADS-B
06:02AM 29.9748 -95.1386 285° West 220 253 3,200 -1,080 Descending FlightAware ADS-B
06:02AM 29.9766 -95.1475 283° West 217 250 3,100 -1,500 Descending FlightAware ADS-B
06:02AM 29.9773 -95.1527 279° West 217 250 2,900 -2,040 Descending FlightAware ADS-B
06:02AM 29.9778 -95.1583 276° West 216 249 2,800 -1,200 Descending FlightAware ADS-B
06:03AM 29.9785 -95.1760 271° West 203 234 2,500 -1,260 Descending FlightAware ADS-B
06:03AM 29.9784 -95.1845 269° West 198 228 2,300 -1,500 Descending FlightAware ADS-B
06:03AM 29.9777 -95.2050 268° West 192 221 1,800 -1,320 Descending FlightAware ADS-B
06:03AM 29.9775 -95.2211 269° West 182 209 1,500 -1,140 Descending FlightAware ADS-B
06:04AM 29.9776 -95.2357 270° West 175 201 1,200 -900 Descending FlightAware ADS-B
06:04AM 29.9776 -95.2466 270° West 163 188 1,100 -960 Descending FlightAware ADS-B
06:04AM 29.9776 -95.2585 270° West 157 181 800 -1,320 Descending FlightAware ADS-B
06:04AM 29.9777 -95.2657 271° West 156 180 600 -1,020 Descending FlightAware ADS-B
06:05AM 29.9776 -95.2782 269° West 157 181 400 -600 Descending FlightAware ADS-B
06:05AM 29.9776 -95.2909 270° West 155 178 300 -420 Descending FlightAware ADS-B